Time;durP1;ratioP1;P1;durP2;ratioP2;P2;SDS_P1;SDS_P2;PMS_P1;PMS_P2;Temp;Humidity;BMP_temperature;BMP_pressure;BME280_temperature;BME280_humidity;BME280_pressure;Samples;Min_cycle;Max_cycle;Signal;HPM_P1;HPM_P2
2023/11/13 00:00:50;;;;;;;28.48;17.60;;;;;;;-146.27;88.24;33523.53;5028217;28;20032;-72
2023/11/13 00:03:15;;;;;;;26.95;16.77;;;;;;;-146.27;88.16;33523.53;5028982;28;20036;-72
2023/11/13 00:05:41;;;;;;;30.60;16.77;;;;;;;-146.27;88.11;33509.63;5028122;28;20037;-71
2023/11/13 00:08:06;;;;;;;30.77;16.13;;;;;;;-146.27;88.16;33493.75;5033718;28;20350;-71
2023/11/13 00:10:35;;;;;;;31.60;17.48;;;;;;;-146.27;88.21;33493.75;5032990;28;20512;-72
2023/11/13 00:13:01;;;;;;;28.77;17.05;;;;;;;-146.27;88.15;33549.31;5031751;28;20052;-74
2023/11/13 00:15:26;;;;;;;29.02;16.30;;;;;;;-146.27;88.42;33509.63;5027664;28;20025;-72
2023/11/13 00:17:52;;;;;;;27.13;16.05;;;;;;;-146.27;88.43;33519.56;5034551;28;20080;-72
2023/11/13 00:20:18;;;;;;;28.92;17.27;;;;;;;-146.27;88.21;33493.75;5026438;28;20032;-72
2023/11/13 00:22:44;;;;;;;29.67;16.92;;;;;;;-146.27;88.24;33487.81;5028573;28;20435;-73
2023/11/13 00:25:10;;;;;;;30.35;17.25;;;;;;;-146.27;88.35;33477.88;5029600;28;20057;-72
2023/11/13 00:27:35;;;;;;;28.98;17.33;;;;;;;-146.27;88.28;33464.00;5026822;28;20119;-72
2023/11/13 00:30:01;;;;;;;35.55;17.55;;;;;;;-146.27;88.35;33460.03;5034954;28;20090;-72
2023/11/13 00:32:26;;;;;;;27.48;16.25;;;;;;;-146.27;88.48;33493.75;5017820;28;20057;-73
2023/11/13 00:34:52;;;;;;;32.78;16.05;;;;;;;-146.27;88.24;33481.84;5018824;28;20171;-72
2023/11/13 00:37:17;;;;;;;30.15;16.85;;;;;;;-146.27;88.15;33432.25;5017032;28;20025;-73
2023/11/13 00:39:42;;;;;;;30.95;16.13;;;;;;;-146.27;88.15;33442.16;5025957;28;20021;-72
2023/11/13 00:42:11;;;;;;;29.10;16.15;;;;;;;-146.27;88.05;33462.00;5025947;28;20424;-72
2023/11/13 00:44:36;;;;;;;34.45;17.67;;;;;;;-146.27;88.35;33479.88;5029220;28;20069;-72
2023/11/13 00:47:03;;;;;;;29.20;16.45;;;;;;;-146.27;88.29;33446.13;5016352;28;20025;-71
2023/11/13 00:49:28;;;;;;;29.98;17.23;;;;;;;-146.27;88.37;33497.72;5027868;28;20021;-73
2023/11/13 00:51:53;;;;;;;29.05;16.55;;;;;;;-146.27;88.43;33497.72;5024993;28;20566;-73
2023/11/13 00:54:19;;;;;;;29.77;16.67;;;;;;;-146.27;88.24;33462.00;5028256;28;20033;-73
2023/11/13 00:56:44;;;;;;;27.00;15.60;;;;;;;-146.27;88.03;33469.94;5031167;28;20040;-72
2023/11/13 00:59:10;;;;;;;30.88;16.83;;;;;;;-146.27;88.21;33450.09;5026528;28;20104;-72
2023/11/13 01:01:35;;;;;;;24.67;13.95;;;;;;;-146.27;88.05;33456.06;5029459;28;20112;-72
2023/11/13 01:04:01;;;;;;;28.95;16.17;;;;;;;-146.27;88.02;33456.06;5023516;28;20036;-72
2023/11/13 01:06:26;;;;;;;25.70;14.70;;;;;;;-146.27;88.00;33446.13;5018777;28;20021;-71
2023/11/13 01:08:51;;;;;;;23.65;14.77;;;;;;;-146.27;87.99;33479.88;5022545;28;20025;-73
2023/11/13 01:11:17;;;;;;;24.60;15.38;;;;;;;-146.27;88.24;33448.13;5021310;28;20162;-71
2023/11/13 01:13:42;;;;;;;23.40;15.27;;;;;;;-146.27;88.16;33473.91;5023424;28;20021;-73
2023/11/13 01:16:08;;;;;;;32.08;16.98;;;;;;;-146.27;88.42;33438.19;5023602;28;20029;-72
2023/11/13 01:18:34;;;;;;;29.27;15.57;;;;;;;-146.27;88.41;33438.19;5020573;28;20454;-72
2023/11/13 01:20:59;;;;;;;29.10;14.75;;;;;;;-146.27;88.04;33414.41;5025521;28;20103;-73
2023/11/13 01:23:25;;;;;;;27.95;15.75;;;;;;;-146.27;88.05;33446.13;5013085;28;20025;-73
2023/11/13 01:25:53;;;;;;;24.42;14.88;;;;;;;-146.27;87.94;33422.34;5026557;28;20025;-73
2023/11/13 01:28:18;;;;;;;29.10;15.88;;;;;;;-146.27;88.01;33410.44;5032636;28;20080;-73
2023/11/13 01:30:44;;;;;;;30.15;16.08;;;;;;;-146.27;88.07;33418.38;5035023;28;20033;-72
2023/11/13 01:33:09;;;;;;;26.63;14.40;;;;;;;-146.27;88.18;33404.47;5017629;28;20025;-72
2023/11/13 01:35:34;;;;;;;29.83;15.68;;;;;;;-146.27;88.02;33390.59;5032150;28;20022;-72
2023/11/13 01:38:00;;;;;;;30.48;15.27;;;;;;;-146.27;87.96;33440.19;5024194;28;20553;-72
2023/11/13 01:40:26;;;;;;;27.88;15.70;;;;;;;-146.27;88.15;33398.53;5037922;28;20112;-72
2023/11/13 01:42:51;;;;;;;21.73;14.00;;;;;;;-146.27;88.27;33412.41;5033511;28;20370;-72
2023/11/13 01:45:17;;;;;;;25.88;14.43;;;;;;;-146.27;88.47;33422.34;5022759;28;20110;-73
2023/11/13 01:47:46;;;;;;;21.65;13.60;;;;;;;-146.27;88.35;33406.47;5030069;28;20036;-72
2023/11/13 01:50:12;;;;;;;27.20;14.18;;;;;;;-146.27;88.35;33398.53;5025699;28;20101;-72
2023/11/13 01:52:38;;;;;;;28.33;14.85;;;;;;;-146.27;88.40;33374.72;5032020;28;20033;-72
2023/11/13 01:55:04;;;;;;;24.17;14.18;;;;;;;-146.27;88.35;33350.91;5021595;28;20049;-72
2023/11/13 01:57:30;;;;;;;30.67;14.30;;;;;;;-146.27;88.21;33370.75;5038347;28;20091;-73
2023/11/13 01:59:55;;;;;;;25.52;14.02;;;;;;;-146.27;88.20;33398.53;5030318;28;20029;-71
2023/11/13 02:02:22;;;;;;;22.02;14.15;;;;;;;-146.27;88.03;33402.50;5023996;28;20096;-73
2023/11/13 02:04:47;;;;;;;21.63;13.13;;;;;;;-146.27;87.98;33362.81;5024511;28;20067;-71
2023/11/13 02:07:13;;;;;;;26.33;13.30;;;;;;;-146.27;88.02;33400.50;5025498;28;20061;-72
2023/11/13 02:09:41;;;;;;;22.05;12.68;;;;;;;-146.27;87.86;33374.72;5027770;28;20083;-73
2023/11/13 02:12:08;;;;;;;23.27;12.68;;;;;;;-146.27;87.85;33342.97;5040010;28;20022;-72
2023/11/13 02:14:34;;;;;;;24.30;13.80;;;;;;;-146.27;87.90;33392.56;5025342;28;20108;-71
2023/11/13 02:17:04;;;;;;;24.88;13.85;;;;;;;-146.27;88.11;33418.38;5030945;28;20045;-71
2023/11/13 02:19:30;;;;;;;22.13;12.98;;;;;;;-146.27;88.08;33428.28;5027281;28;20647;-72
2023/11/13 02:21:55;;;;;;;22.63;14.07;;;;;;;-146.27;88.07;33410.44;5012650;28;20029;-72
2023/11/13 02:24:22;;;;;;;23.05;13.68;;;;;;;-146.27;88.22;33402.50;5020996;28;20501;-73
2023/11/13 02:26:48;;;;;;;27.92;12.93;;;;;;;-146.27;88.26;33374.72;5016805;28;20037;-71
2023/11/13 02:29:14;;;;;;;21.38;12.95;;;;;;;-146.27;88.18;33420.34;5026870;28;20374;-72
2023/11/13 02:31:56;;;;;;;20.80;12.93;;;;;;;-146.27;88.21;33372.72;5021558;28;20028;-72
2023/11/13 02:34:22;;;;;;;23.30;13.88;;;;;;;-146.27;88.35;33354.88;5023341;28;20025;-73
2023/11/13 02:36:50;;;;;;;23.85;12.35;;;;;;;-146.27;88.49;33348.91;5025708;28;20389;-71
2023/11/13 02:39:19;;;;;;;29.48;12.50;;;;;;;-146.27;88.51;33340.97;5031001;28;20059;-72
2023/11/13 02:41:46;;;;;;;23.95;13.35;;;;;;;-146.27;88.40;33386.63;5022503;28;20056;-72
2023/11/13 02:44:12;;;;;;;22.38;13.13;;;;;;;-146.27;88.35;33354.88;5026431;28;20036;-72
2023/11/13 02:46:38;;;;;;;23.48;12.75;;;;;;;-146.27;88.45;33352.88;5031368;28;20021;-73
2023/11/13 02:49:04;;;;;;;23.80;12.38;;;;;;;-146.27;88.20;33331.06;5035650;28;20563;-73
2023/11/13 02:51:29;;;;;;;23.38;13.20;;;;;;;-146.27;88.31;33362.81;5022694;28;20034;-72
2023/11/13 02:53:55;;;;;;;24.80;12.55;;;;;;;-146.27;88.29;33346.94;5032980;28;20163;-73
2023/11/13 02:56:21;;;;;;;19.80;12.32;;;;;;;-146.27;88.23;33275.50;5036479;28;20100;-72
2023/11/13 02:58:48;;;;;;;24.35;13.25;;;;;;;-146.27;88.21;33297.31;5039708;28;20171;-73
2023/11/13 03:01:14;;;;;;;24.63;13.18;;;;;;;-146.27;88.24;33299.31;5036916;28;20025;-71
2023/11/13 03:03:40;;;;;;;18.05;11.07;;;;;;;-146.27;88.24;33247.72;5027324;28;20061;-73
2023/11/13 03:06:06;;;;;;;24.00;12.13;;;;;;;-146.27;88.27;33295.34;5032561;28;20120;-72
2023/11/13 03:08:31;;;;;;;22.13;11.57;;;;;;;-146.27;88.26;33202.09;5028891;28;20033;-71
2023/11/13 03:10:57;;;;;;;22.40;12.30;;;;;;;-146.27;87.99;33301.28;5032801;28;20029;-73
2023/11/13 03:13:22;;;;;;;22.65;12.48;;;;;;;-146.27;88.22;33303.28;5033847;28;20029;-73
2023/11/13 03:15:48;;;;;;;21.73;12.55;;;;;;;-146.27;88.24;33287.41;5029035;28;20373;-73
2023/11/13 03:18:14;;;;;;;20.35;11.68;;;;;;;-146.27;88.05;33255.66;5030774;28;20516;-73
2023/11/13 03:20:40;;;;;;;20.83;12.50;;;;;;;-146.27;87.94;33275.50;5035843;28;20445;-72
2023/11/13 03:23:06;;;;;;;22.95;11.80;;;;;;;-146.27;87.92;33235.81;5030840;28;20109;-72
2023/11/13 03:25:31;;;;;;;26.50;11.77;;;;;;;-146.27;88.23;33275.50;5026677;28;20039;-72
2023/11/13 03:27:56;;;;;;;22.13;12.63;;;;;;;-146.27;88.13;33273.53;5027840;28;20021;-72
2023/11/13 03:30:22;;;;;;;20.17;12.02;;;;;;;-146.27;88.26;33229.88;5032033;28;20087;-73
2023/11/13 03:32:47;;;;;;;21.88;12.10;;;;;;;-146.27;88.26;33243.75;5034526;28;20071;-72
2023/11/13 03:35:16;;;;;;;18.25;11.27;;;;;;;-146.27;88.21;33217.97;5030329;28;20029;-72
2023/11/13 03:37:42;;;;;;;22.67;12.05;;;;;;;-146.27;88.20;33243.75;5027887;28;20045;-72
2023/11/13 03:40:08;;;;;;;21.15;12.98;;;;;;;-146.27;88.07;33225.91;5030110;28;20522;-72
2023/11/13 03:42:35;;;;;;;21.10;12.00;;;;;;;-146.27;88.13;33239.78;5037820;28;20116;-72
2023/11/13 03:45:00;;;;;;;17.80;11.48;;;;;;;-146.27;88.24;33239.78;5031111;28;20021;-73
2023/11/13 03:47:25;;;;;;;19.77;12.05;;;;;;;-146.27;88.05;33219.94;5034727;28;20036;-73
2023/11/13 03:49:51;;;;;;;25.33;12.25;;;;;;;-146.27;88.00;33194.16;5018035;28;20021;-72
2023/11/13 03:52:16;;;;;;;19.15;12.68;;;;;;;-146.27;88.17;33176.31;5034871;28;20028;-73
2023/11/13 03:54:41;;;;;;;19.17;11.73;;;;;;;-146.27;88.02;33215.97;5036060;28;20407;-72
2023/11/13 03:57:11;;;;;;;19.40;12.50;;;;;;;-146.27;88.20;33168.38;5037298;28;20359;-72
2023/11/13 03:59:36;;;;;;;21.80;11.48;;;;;;;-146.27;88.30;33116.78;5030704;28;20508;-73
2023/11/13 04:02:02;;;;;;;20.25;12.32;;;;;;;-146.27;88.40;33164.41;5025122;28;20022;-73
2023/11/13 04:04:28;;;;;;;29.52;13.45;;;;;;;-146.27;88.37;33180.28;5030972;28;20026;-72
2023/11/13 04:06:53;;;;;;;23.48;13.02;;;;;;;-146.27;88.35;33192.16;5025447;28;20029;-72
2023/11/13 04:09:19;;;;;;;20.63;11.95;;;;;;;-146.27;88.29;33180.28;5027719;28;20022;-72
2023/11/13 04:11:45;;;;;;;26.80;13.68;;;;;;;-146.27;88.54;33168.38;5020352;28;20036;-73
2023/11/13 04:14:11;;;;;;;25.80;13.55;;;;;;;-146.27;88.54;33144.56;5027358;28;20113;-72
2023/11/13 04:16:36;;;;;;;25.90;14.40;;;;;;;-146.27;88.33;33188.19;5041995;28;20124;-73
2023/11/13 04:19:02;;;;;;;22.73;13.27;;;;;;;-146.27;88.21;33176.31;5037776;28;20060;-72
2023/11/13 04:21:31;;;;;;;24.60;13.30;;;;;;;-146.27;88.26;33168.38;5028982;28;20029;-72
2023/11/13 04:23:58;;;;;;;24.63;13.95;;;;;;;-146.27;88.59;33144.56;5037628;28;20040;-72
2023/11/13 04:26:23;;;;;;;23.48;13.48;;;;;;;-146.27;88.60;33136.63;5037715;28;20500;-72
2023/11/13 04:28:49;;;;;;;19.40;13.30;;;;;;;-146.27;88.38;33146.53;5019648;28;20022;-72
2023/11/13 04:31:15;;;;;;;23.75;14.10;;;;;;;-146.27;88.44;33166.38;5026963;28;20043;-72
2023/11/13 04:33:41;;;;;;;24.27;14.50;;;;;;;-146.27;88.46;33108.84;5027990;28;20033;-73
2023/11/13 04:36:06;;;;;;;22.10;13.25;;;;;;;-146.27;88.46;33142.56;5026538;28;20026;-72
2023/11/13 04:38:36;;;;;;;24.98;14.23;;;;;;;-146.27;88.51;33166.38;5028221;28;20564;-73
2023/11/13 04:41:01;;;;;;;25.77;14.30;;;;;;;-146.27;88.59;33128.69;5015728;28;20783;-74
2023/11/13 04:43:27;;;;;;;28.13;14.48;;;;;;;-146.27;88.80;33116.78;5029186;28;20028;-73
2023/11/13 04:45:52;;;;;;;27.38;14.40;;;;;;;-146.27;88.64;33102.88;5021827;28;20021;-72
2023/11/13 04:48:18;;;;;;;25.17;14.30;;;;;;;-146.27;88.65;33075.13;5036181;28;20077;-73
2023/11/13 04:50:43;;;;;;;35.08;16.80;;;;;;;-146.27;88.86;33114.78;5029630;28;20030;-73
2023/11/13 04:53:08;;;;;;;28.75;15.48;;;;;;;-146.27;88.77;33089.00;5028773;28;20040;-72
2023/11/13 04:55:34;;;;;;;31.63;16.23;;;;;;;-146.27;88.80;33098.94;5032103;28;20028;-73
2023/11/13 04:57:59;;;;;;;32.83;15.52;;;;;;;-146.27;89.21;33128.69;5043814;28;20032;-73
2023/11/13 05:00:25;;;;;;;29.77;15.68;;;;;;;-146.27;89.25;33120.75;5039093;28;20627;-73
2023/11/13 05:02:51;;;;;;;33.28;15.43;;;;;;;-146.27;89.10;33112.81;5035975;28;20473;-72
2023/11/13 05:05:16;;;;;;;31.48;15.77;;;;;;;-146.27;89.20;33094.97;5027034;28;20032;-73
2023/11/13 05:07:42;;;;;;;37.17;16.65;;;;;;;-146.27;89.32;33100.91;5023855;28;20038;-72
2023/11/13 05:10:09;;;;;;;36.90;17.30;;;;;;;-146.27;89.34;33112.81;5040573;28;20017;-72
2023/11/13 05:12:35;;;;;;;36.42;16.75;;;;;;;-146.27;89.34;33104.88;5041459;28;20235;-73
2023/11/13 05:15:00;;;;;;;31.58;16.45;;;;;;;-146.27;89.20;33083.06;5036041;28;20046;-73
2023/11/13 05:17:25;;;;;;;40.78;16.70;;;;;;;-146.27;89.48;33120.75;5046917;28;20049;-75
2023/11/13 05:19:51;;;;;;;28.13;15.38;;;;;;;-146.27;89.41;33075.13;5033968;28;20075;-72
2023/11/13 05:22:16;;;;;;;33.50;16.08;;;;;;;-146.27;89.04;33087.03;5029188;28;20026;-72
2023/11/13 05:24:41;;;;;;;29.27;15.68;;;;;;;-146.27;89.35;33085.03;5026391;28;20029;-72
2023/11/13 05:27:07;;;;;;;32.15;17.02;;;;;;;-146.27;89.23;33073.13;5026800;28;20033;-72
2023/11/13 05:29:32;;;;;;;30.95;16.25;;;;;;;-146.27;89.49;33114.78;5028806;28;20520;-73
2023/11/13 05:31:57;;;;;;;36.63;14.93;;;;;;;-146.27;89.72;33150.50;5034724;28;20447;-73
2023/11/13 05:34:24;;;;;;;36.78;15.80;;;;;;;-146.27;89.70;33087.03;5038425;28;20108;-72
2023/11/13 05:36:50;;;;;;;36.03;15.05;;;;;;;-146.27;89.66;33092.97;5034824;28;20038;-72
2023/11/13 05:39:16;;;;;;;33.17;15.73;;;;;;;-146.27;89.42;33055.28;5030578;28;20075;-73
2023/11/13 05:41:41;;;;;;;31.83;15.50;;;;;;;-146.27;89.53;33077.09;5032374;28;20770;-72
2023/11/13 05:44:06;;;;;;;44.30;15.10;;;;;;;-146.27;89.60;33053.28;5040130;28;20021;-72
2023/11/13 05:46:32;;;;;;;47.20;16.15;;;;;;;-146.27;89.48;33037.41;5039449;28;20034;-72
2023/11/13 05:48:59;;;;;;;31.33;15.13;;;;;;;-146.27;89.53;32918.38;5036014;28;20027;-72
2023/11/13 05:51:24;;;;;;;34.92;14.90;;;;;;;-146.27;89.60;33045.34;5040026;28;20029;-72
2023/11/13 05:53:50;;;;;;;46.17;16.90;;;;;;;-146.27;89.91;33045.34;5026720;28;20037;-73
2023/11/13 05:56:16;;;;;;;58.50;16.20;;;;;;;-146.27;89.79;33045.34;5026795;28;20521;-73
2023/11/13 05:58:42;;;;;;;56.92;16.67;;;;;;;-146.27;89.45;33049.31;5033406;28;20033;-72
2023/11/13 06:01:08;;;;;;;42.42;17.70;;;;;;;-146.27;89.40;32979.88;5027536;28;20370;-73
2023/11/13 06:03:33;;;;;;;32.22;15.32;;;;;;;-146.27;89.49;33009.66;5017241;28;20474;-72
2023/11/13 06:05:59;;;;;;;38.08;16.50;;;;;;;-146.27;89.75;33027.50;5033614;28;20033;-73
2023/11/13 06:08:24;;;;;;;41.75;16.63;;;;;;;-146.27;89.48;32973.94;5036602;28;20381;-73
2023/11/13 06:10:49;;;;;;;33.22;17.58;;;;;;;-146.27;89.62;33021.53;5035838;28;20033;-73
2023/11/13 06:13:15;;;;;;;35.13;16.17;;;;;;;-146.27;89.60;32985.84;5038936;28;20853;-72
2023/11/13 06:15:40;;;;;;;33.08;15.05;;;;;;;-146.27;89.70;32979.88;5032099;28;20095;-72
2023/11/13 06:18:07;;;;;;;31.27;16.42;;;;;;;-146.27;89.70;32912.44;5047384;28;20042;-73
2023/11/13 06:20:33;;;;;;;37.55;16.67;;;;;;;-146.27;89.70;32966.00;5029412;28;20118;-73
2023/11/13 06:23:00;;;;;;;33.70;15.68;;;;;;;-146.27;89.75;32964.00;5043839;28;20028;-72
2023/11/13 06:25:25;;;;;;;42.38;16.92;;;;;;;-146.27;89.80;32966.00;5031691;28;20041;-73
2023/11/13 06:27:53;;;;;;;52.13;18.25;;;;;;;-146.27;89.91;32962.03;5027112;28;20413;-73
2023/11/13 06:30:18;;;;;;;31.73;15.55;;;;;;;-146.27;89.67;32977.91;5032782;28;20440;-72
2023/11/13 06:32:47;;;;;;;39.58;16.40;;;;;;;-146.27;89.64;32936.25;5030896;28;20025;-72
2023/11/13 06:35:13;;;;;;;34.88;16.25;;;;;;;-146.27;89.59;32930.28;5027915;28;20615;-73
2023/11/13 06:37:41;;;;;;;35.95;16.25;;;;;;;-146.27;89.61;32910.44;5018304;28;20026;-70
2023/11/13 06:40:07;;;;;;;47.20;15.65;;;;;;;-146.27;89.76;32942.19;5026397;28;20022;-71
2023/11/13 06:42:32;;;;;;;35.40;16.10;;;;;;;-146.27;89.99;32950.13;5028683;28;20032;-70
2023/11/13 06:44:58;;;;;;;33.80;14.88;;;;;;;-146.27;89.93;32928.31;5027973;28;20540;-70
2023/11/13 06:47:24;;;;;;;37.45;14.52;;;;;;;-146.27;89.88;32898.53;5032847;28;20025;-71
2023/11/13 06:49:49;;;;;;;33.88;14.80;;;;;;;-146.27;89.80;32886.63;5023873;28;20045;-70
2023/11/13 06:52:15;;;;;;;34.33;15.43;;;;;;;-146.27;89.88;32848.94;5026703;28;20112;-71
2023/11/13 06:54:40;;;;;;;39.42;14.02;;;;;;;-146.27;89.96;32858.88;5031027;28;20163;-72
2023/11/13 06:57:07;;;;;;;33.97;14.60;;;;;;;-146.27;89.69;32870.78;5031232;28;20029;-73
2023/11/13 06:59:32;;;;;;;34.95;15.18;;;;;;;-146.27;89.99;32856.88;5032275;28;20079;-73
2023/11/13 07:01:59;;;;;;;42.25;16.40;;;;;;;-146.27;90.13;32831.09;5045280;28;20059;-72
2023/11/13 07:04:25;;;;;;;35.30;16.05;;;;;;;-146.27;90.02;32805.31;5031960;28;20117;-73
2023/11/13 07:06:50;;;;;;;37.42;14.77;;;;;;;-146.27;90.21;32714.03;5025081;28;20025;-72
2023/11/13 07:09:17;;;;;;;34.30;14.88;;;;;;;-146.27;90.11;32823.16;5027394;28;20022;-72
2023/11/13 07:11:44;;;;;;;33.72;13.23;;;;;;;-146.27;90.31;32807.28;5030038;28;20075;-72
2023/11/13 07:14:12;;;;;;;33.80;13.80;;;;;;;-146.27;90.23;32805.31;5029950;28;20037;-72
2023/11/13 07:16:40;;;;;;;35.55;14.18;;;;;;;-146.27;90.02;32785.47;5027378;28;20021;-73
2023/11/13 07:19:06;;;;;;;42.35;15.98;;;;;;;-146.27;90.14;32751.75;5027757;28;20060;-72
2023/11/13 07:21:31;;;;;;;39.80;16.40;;;;;;;-146.27;90.28;32735.88;5031954;28;20398;-73
2023/11/13 07:23:58;;;;;;;44.00;16.70;;;;;;;-146.27;90.19;32634.69;5033459;28;20032;-72
2023/11/13 07:26:26;;;;;;;39.65;15.45;;;;;;;-146.27;90.21;32733.88;5029775;28;20634;-72
2023/11/13 07:28:52;;;;;;;40.17;14.02;;;;;;;-146.27;90.32;32692.22;5012247;28;20021;-73
2023/11/13 07:31:19;;;;;;;37.03;15.07;;;;;;;-146.27;90.40;32680.31;5027018;28;20521;-72
2023/11/13 07:33:45;;;;;;;38.33;15.20;;;;;;;-146.27;90.39;32666.44;5021243;28;20029;-71
2023/11/13 07:36:11;;;;;;;32.88;14.65;;;;;;;-146.27;90.40;32684.28;5029768;28;20025;-71
2023/11/13 07:38:36;;;;;;;40.78;14.93;;;;;;;-146.27;90.65;32612.88;5025272;28;20643;-72
2023/11/13 07:41:02;;;;;;;55.22;17.20;;;;;;;-146.27;90.52;32620.81;5030447;28;20022;-72
2023/11/13 07:43:28;;;;;;;46.40;16.35;;;;;;;-146.27;90.80;32598.97;5030109;28;20033;-71
2023/11/13 07:45:54;;;;;;;49.85;15.32;;;;;;;-146.27;90.67;32559.31;5022783;28;20462;-71
2023/11/13 07:48:19;;;;;;;46.92;17.38;;;;;;;-146.27;90.71;32557.31;5025714;28;20025;-71
2023/11/13 07:50:45;;;;;;;48.35;17.42;;;;;;;-146.27;90.78;32523.59;5029247;28;20104;-71
2023/11/13 07:53:10;;;;;;;42.58;17.27;;;;;;;-146.27;90.83;32497.81;5031982;28;20397;-71
2023/11/13 07:55:35;;;;;;;52.08;18.27;;;;;;;-146.27;90.96;32418.47;5035218;28;20498;-71
2023/11/13 07:58:01;;;;;;;45.60;17.35;;;;;;;-146.27;90.77;32462.09;5041511;28;20429;-71
2023/11/13 08:00:26;;;;;;;53.40;18.55;;;;;;;-146.27;90.76;32442.28;5030235;28;20371;-71
2023/11/13 08:02:52;;;;;;;48.53;17.00;;;;;;;-146.27;90.83;32410.53;5039341;28;20025;-72
2023/11/13 08:05:17;;;;;;;48.35;17.67;;;;;;;-146.27;90.78;32360.94;5029860;28;20477;-72
2023/11/13 08:07:44;;;;;;;41.03;17.70;;;;;;;-146.27;90.87;32406.56;5033376;28;20040;-72
2023/11/13 08:10:13;;;;;;;43.67;16.77;;;;;;;-146.27;91.08;32355.00;5026398;28;20552;-72
2023/11/13 08:12:49;;;;;;;47.75;17.85;;;;;;;-146.27;91.02;32347.06;5027312;28;20131;-72
2023/11/13 08:15:15;;;;;;;49.55;18.73;;;;;;;-146.27;91.28;32329.19;5025962;28;20060;-72
2023/11/13 08:17:45;;;;;;;47.70;18.15;;;;;;;-146.27;91.14;32295.47;5029942;28;20052;-72
2023/11/13 08:20:13;;;;;;;42.30;18.02;;;;;;;-146.27;91.02;32303.41;5031504;28;20611;-71
2023/11/13 08:22:40;;;;;;;44.78;18.88;;;;;;;-146.27;91.48;32243.91;5035855;28;20029;-71
2023/11/13 08:25:06;;;;;;;47.22;18.23;;;;;;;-146.27;91.43;32234.00;5031311;28;20029;-70
2023/11/13 08:27:31;;;;;;;50.05;19.30;;;;;;;-146.27;91.71;32232.00;5026971;28;20037;-72
2023/11/13 08:29:57;;;;;;;45.78;17.63;;;;;;;-146.27;92.24;32220.09;5031635;28;20021;-71
2023/11/13 08:32:22;;;;;;;46.97;17.27;;;;;;;-146.27;92.47;32226.06;5030821;28;20040;-71
2023/11/13 08:34:48;;;;;;;47.22;16.95;;;;;;;-146.27;92.74;32208.22;5029162;28;20049;-74
2023/11/13 08:37:14;;;;;;;51.72;18.65;;;;;;;-146.27;92.27;32136.78;5032932;28;20037;-71
2023/11/13 08:39:40;;;;;;;43.40;17.27;;;;;;;-146.27;92.23;32180.44;5034069;28;20105;-72
2023/11/13 08:42:07;;;;;;;52.83;17.90;;;;;;;-146.27;92.55;32174.47;5030058;28;20038;-70
2023/11/13 08:44:32;;;;;;;44.22;15.57;;;;;;;-146.27;92.20;32128.88;5027224;28;20060;-71
2023/11/13 08:46:58;;;;;;;33.38;15.10;;;;;;;-146.27;92.36;32113.00;5050624;28;20063;-72
2023/11/13 08:49:24;;;;;;;33.38;14.98;;;;;;;-146.27;92.40;32105.06;5033026;28;20075;-70
2023/11/13 08:51:49;;;;;;;33.83;12.50;;;;;;;-146.27;92.44;32118.94;5035978;28;20040;-70
2023/11/13 08:54:16;;;;;;;31.10;12.07;;;;;;;-146.27;92.24;32134.81;5045988;28;20064;-72
2023/11/13 08:56:48;;;;;;;33.40;12.05;;;;;;;-146.27;92.66;32168.53;5030697;28;20071;-71
2023/11/13 08:59:14;;;;;;;24.63;11.23;;;;;;;-146.27;92.63;32128.88;5017054;28;20054;-72
2023/11/13 09:01:40;;;;;;;26.25;10.55;;;;;;;-146.27;92.76;32150.69;5010677;28;20104;-71
2023/11/13 09:04:06;;;;;;;23.02;10.20;;;;;;;-146.27;92.92;32097.13;5010661;28;20385;-71
2023/11/13 09:06:35;;;;;;;29.02;10.00;;;;;;;-146.27;93.03;32101.09;5042077;28;20041;-70
2023/11/13 09:09:01;;;;;;;26.27;9.85;;;;;;;-146.27;92.88;32101.09;5036463;28;20418;-72
2023/11/13 09:11:28;;;;;;;20.25;8.32;;;;;;;-146.27;92.31;32007.88;5036209;28;20116;-71
2023/11/13 09:13:54;;;;;;;25.25;8.48;;;;;;;-146.27;92.25;32095.16;5037386;28;20021;-71
2023/11/13 09:16:20;;;;;;;21.10;7.15;;;;;;;-146.27;92.32;32073.31;5033424;28;20036;-71
2023/11/13 09:18:48;;;;;;;18.45;6.13;;;;;;;-146.27;92.60;32114.97;5038007;28;20394;-70
2023/11/13 09:21:17;;;;;;;15.68;5.68;;;;;;;-146.27;92.73;32130.84;5032499;28;20020;-71
2023/11/13 09:23:43;;;;;;;13.55;4.07;;;;;;;-146.27;93.30;32220.09;5048932;28;20037;-73
2023/11/13 09:26:11;;;;;;;14.85;3.38;;;;;;;-146.27;92.99;32116.97;5029364;28;20121;-72
2023/11/13 09:28:37;;;;;;;15.13;3.45;;;;;;;-146.27;93.04;32152.66;5027614;28;20030;-72
2023/11/13 09:31:03;;;;;;;17.58;3.90;;;;;;;-146.27;92.37;32122.91;5022398;28;20500;-72
2023/11/13 09:33:29;;;;;;;13.75;2.35;;;;;;;-146.27;92.39;32120.94;5032761;28;20033;-70
2023/11/13 09:35:54;;;;;;;12.10;2.90;;;;;;;-146.27;92.52;32113.00;5030003;28;20097;-71
2023/11/13 09:38:20;;;;;;;7.90;2.50;;;;;;;-146.27;92.21;32124.91;5029504;28;20898;-72
2023/11/13 09:40:46;;;;;;;14.38;2.50;;;;;;;-146.27;92.52;32154.66;5032801;28;20566;-72
2023/11/13 09:43:32;;;;;;;11.63;2.17;;;;;;;-146.27;92.23;32184.41;5032948;28;20075;-72
2023/11/13 09:46:03;;;;;;;10.20;2.55;;;;;;;-146.27;92.25;32077.28;5032251;28;20037;-72
2023/11/13 09:48:30;;;;;;;12.23;2.45;;;;;;;-146.27;92.20;32124.91;5035625;28;20569;-70
2023/11/13 09:51:00;;;;;;;13.27;2.78;;;;;;;-146.27;92.04;32158.63;5017035;28;20116;-71
2023/11/13 09:53:28;;;;;;;8.48;2.33;;;;;;;-146.27;91.91;32138.78;5033953;28;20087;-72
2023/11/13 09:55:54;;;;;;;11.77;2.85;;;;;;;-146.27;92.01;32103.06;5033149;28;20025;-72
2023/11/13 09:58:21;;;;;;;9.95;2.70;;;;;;;-146.27;91.99;32140.75;5029196;28;20030;-72
2023/11/13 10:00:46;;;;;;;9.68;3.00;;;;;;;-146.27;92.07;32160.59;5040706;28;20135;-71
2023/11/13 10:03:14;;;;;;;8.00;2.67;;;;;;;-146.27;91.82;32114.97;5043840;28;20117;-73
2023/11/13 10:05:40;;;;;;;10.82;2.65;;;;;;;-146.27;92.08;32172.50;5032320;28;20026;-72
2023/11/13 10:08:05;;;;;;;9.80;2.97;;;;;;;-146.27;91.85;32154.66;5029418;28;20447;-71
2023/11/13 10:10:31;;;;;;;12.38;2.65;;;;;;;-146.27;92.12;32168.53;5033542;28;20033;-71
2023/11/13 10:13:01;;;;;;;10.57;3.60;;;;;;;-146.27;92.33;32174.47;5029392;28;20716;-71
2023/11/13 10:15:28;;;;;;;8.98;3.53;;;;;;;-146.27;92.11;32113.00;5013675;28;20553;-71
2023/11/13 10:17:58;;;;;;;9.60;3.33;;;;;;;-146.27;92.21;32132.84;5024957;28;20053;-71
2023/11/13 10:20:25;;;;;;;5.30;2.80;;;;;;;-146.27;92.10;32083.25;5033389;28;20033;-71
2023/11/13 10:23:05;;;;;;;7.78;2.90;;;;;;;-146.27;91.79;32081.25;5031713;28;20103;-71
2023/11/13 10:25:56;;;;;;;8.98;2.67;;;;;;;-146.27;91.79;32055.47;5013638;28;20037;-71
2023/11/13 10:28:33;;;;;;;12.77;3.65;;;;;;;-146.27;92.02;32073.31;5012097;28;20034;-71
2023/11/13 10:31:00;;;;;;;9.02;3.28;;;;;;;-146.27;92.01;32077.28;5028613;28;20562;-70
2023/11/13 10:33:28;;;;;;;11.05;3.47;;;;;;;-146.27;91.98;32053.50;5037772;28;20537;-72
2023/11/13 10:35:57;;;;;;;11.10;3.50;;;;;;;-146.27;92.30;32061.44;5050470;28;20031;-71
2023/11/13 10:38:24;;;;;;;13.77;3.85;;;;;;;-146.27;92.08;32011.84;5040929;28;20029;-71
2023/11/13 10:40:58;;;;;;;7.30;3.40;;;;;;;-146.27;91.99;32009.84;5023515;28;20536;-73
2023/11/13 10:43:32;;;;;;;6.07;3.10;;;;;;;-146.27;92.58;32029.69;5028515;28;20048;-72
2023/11/13 10:45:59;;;;;;;6.75;4.03;;;;;;;-146.27;92.27;32013.81;5028137;28;20481;-72
2023/11/13 10:48:41;;;;;;;11.48;4.63;;;;;;;-146.27;92.62;32001.91;5035835;28;20016;-72
2023/11/13 10:51:09;;;;;;;7.53;4.90;;;;;;;-146.27;92.71;31918.63;5027594;28;20108;-72
2023/11/13 10:53:37;;;;;;;10.63;4.63;;;;;;;-146.27;93.00;31999.94;5032550;28;20044;-73
2023/11/13 10:56:03;;;;;;;11.50;5.00;;;;;;;-146.27;92.98;32001.91;5032349;28;20017;-72
2023/11/13 10:58:29;;;;;;;12.30;5.10;;;;;;;-146.27;93.11;32021.75;5032483;28;20104;-72
2023/11/13 11:00:58;;;;;;;11.48;6.38;;;;;;;-146.27;93.04;31974.16;5018061;28;20065;-72